Time;durP1;ratioP1;P1;durP2;ratioP2;P2;SDS_P1;SDS_P2;PMS_P1;PMS_P2;Temp;Humidity;BMP_temperature;BMP_pressure;BME280_temperature;BME280_humidity;BME280_pressure;Samples;Min_cycle;Max_cycle;Signal;HPM_P1;HPM_P2
2023/05/29 00:00:22;;;;;;;23.92;22.60;;;;;;;;;;5014938;28;20129;-59
2023/05/29 00:02:50;;;;;;;24.58;23.08;;;;;;;;;;5014266;28;20120;-59
2023/05/29 00:05:16;;;;;;;22.35;21.05;;;;;;;;;;5015755;28;20033;-59
2023/05/29 00:07:42;;;;;;;21.27;20.13;;;;;;;;;;5018061;28;20032;-59
2023/05/29 00:10:09;;;;;;;23.13;21.85;;;;;;;;;;5014531;28;20033;-59
2023/05/29 00:12:35;;;;;;;20.60;19.48;;;;;;;;;;5016889;28;20033;-59
2023/05/29 00:15:01;;;;;;;20.15;19.05;;;;;;;;;;5014504;28;20029;-59
2023/05/29 00:17:26;;;;;;;20.55;19.45;;;;;;;;;;5013504;28;20033;-59
2023/05/29 00:19:51;;;;;;;20.98;19.80;;;;;;;;;;5016779;28;20038;-60
2023/05/29 00:22:17;;;;;;;19.60;18.52;;;;;;;;;;5016464;28;20836;-60
2023/05/29 00:24:43;;;;;;;19.30;18.20;;;;;;;;;;5014631;28;20040;-59
2023/05/29 00:27:09;;;;;;;17.70;16.70;;;;;;;;;;5014498;28;20390;-59
2023/05/29 00:29:36;;;;;;;21.58;20.35;;;;;;;;;;5013497;28;20041;-59
2023/05/29 00:32:01;;;;;;;20.48;19.38;;;;;;;;;;5012946;28;20033;-59
2023/05/29 00:34:27;;;;;;;19.15;18.08;;;;;;;;;;5014627;28;20460;-59
2023/05/29 00:36:53;;;;;;;21.20;19.90;;;;;;;;;;5014761;28;20240;-59
2023/05/29 00:39:18;;;;;;;19.60;18.50;;;;;;;;;;5015207;28;20534;-59
2023/05/29 00:41:43;;;;;;;23.83;22.23;;;;;;;;;;5016001;28;20034;-59
2023/05/29 00:44:10;;;;;;;24.52;22.98;;;;;;;;;;5015159;28;20120;-59
2023/05/29 00:46:35;;;;;;;23.90;22.65;;;;;;;;;;5011416;28;20029;-59
2023/05/29 00:49:01;;;;;;;25.42;23.83;;;;;;;;;;5013653;28;20374;-59
2023/05/29 00:51:28;;;;;;;21.98;20.77;;;;;;;;;;5013812;28;20033;-64
2023/05/29 00:53:54;;;;;;;28.27;26.70;;;;;;;;;;5014615;28;20038;-59
2023/05/29 00:56:21;;;;;;;27.45;25.95;;;;;;;;;;5014685;28;20041;-60
2023/05/29 00:58:49;;;;;;;26.00;24.60;;;;;;;;;;5015151;28;20033;-60
2023/05/29 01:01:16;;;;;;;27.13;25.67;;;;;;;;;;5014774;28;20062;-60
2023/05/29 01:03:42;;;;;;;29.23;27.63;;;;;;;;;;5014883;28;20463;-59
2023/05/29 01:06:07;;;;;;;25.55;24.15;;;;;;;;;;5014685;28;20034;-60
2023/05/29 01:08:33;;;;;;;24.88;23.58;;;;;;;;;;5014050;28;20471;-60
2023/05/29 01:11:08;;;;;;;28.25;26.73;;;;;;;;;;5014604;28;20051;-60
2023/05/29 01:13:35;;;;;;;28.30;26.77;;;;;;;;;;5015205;28;20053;-60
2023/05/29 01:16:11;;;;;;;27.95;26.45;;;;;;;;;;5012310;28;20460;-59
2023/05/29 01:19:00;;;;;;;26.02;24.63;;;;;;;;;;5013324;28;20123;-59
2023/05/29 01:21:28;;;;;;;25.45;24.05;;;;;;;;;;5015199;28;20486;-60
2023/05/29 01:24:03;;;;;;;27.75;25.98;;;;;;;;;;5016543;28;20332;-60
2023/05/29 01:26:51;;;;;;;28.10;26.60;;;;;;;;;;5015360;28;20029;-60
2023/05/29 01:29:23;;;;;;;28.58;26.92;;;;;;;;;;5014502;28;20034;-60
2023/05/29 01:31:49;;;;;;;23.45;22.10;;;;;;;;;;5023070;28;20468;-60
2023/05/29 01:34:15;;;;;;;25.05;23.75;;;;;;;;;;5015374;28;20045;-60
2023/05/29 01:36:40;;;;;;;26.17;24.23;;;;;;;;;;5014772;28;20037;-59
2023/05/29 01:39:06;;;;;;;22.83;21.63;;;;;;;;;;5014024;28;20472;-59
2023/05/29 01:41:32;;;;;;;20.90;19.75;;;;;;;;;;5015788;28;20137;-59
2023/05/29 01:43:59;;;;;;;20.45;19.35;;;;;;;;;;5014062;28;20486;-59
2023/05/29 01:46:27;;;;;;;20.65;19.50;;;;;;;;;;5011407;28;20132;-60
2023/05/29 01:48:54;;;;;;;20.13;19.02;;;;;;;;;;5015679;28;20526;-59
2023/05/29 01:51:19;;;;;;;18.90;17.80;;;;;;;;;;5012327;28;20049;-60
2023/05/29 01:53:45;;;;;;;18.83;17.80;;;;;;;;;;5015798;28;20120;-59
2023/05/29 01:56:10;;;;;;;16.30;15.30;;;;;;;;;;5016737;28;20104;-59
2023/05/29 01:58:37;;;;;;;15.32;14.43;;;;;;;;;;5014247;28;20038;-59
2023/05/29 02:01:06;;;;;;;13.10;12.30;;;;;;;;;;5011993;28;20061;-59
2023/05/29 02:03:32;;;;;;;13.77;12.98;;;;;;;;;;5013124;28;20041;-59
2023/05/29 02:05:58;;;;;;;14.20;13.40;;;;;;;;;;5014538;28;20371;-60
2023/05/29 02:08:24;;;;;;;14.35;13.55;;;;;;;;;;5013482;28;20535;-60
2023/05/29 02:10:49;;;;;;;12.38;11.57;;;;;;;;;;5014795;28;20052;-60
2023/05/29 02:13:14;;;;;;;10.88;10.18;;;;;;;;;;5013322;28;20025;-60
2023/05/29 02:15:40;;;;;;;11.60;10.90;;;;;;;;;;5013130;28;20536;-59
2023/05/29 02:18:11;;;;;;;11.07;10.38;;;;;;;;;;5016260;28;20523;-60
2023/05/29 02:20:37;;;;;;;11.98;11.18;;;;;;;;;;5011367;28;20038;-59
2023/05/29 02:23:02;;;;;;;14.68;11.55;;;;;;;;;;5014362;28;20033;-59
2023/05/29 02:25:27;;;;;;;11.93;11.23;;;;;;;;;;5012903;28;20546;-60
2023/05/29 02:27:53;;;;;;;10.18;9.55;;;;;;;;;;5014436;28;20583;-60
2023/05/29 02:30:18;;;;;;;11.00;10.30;;;;;;;;;;5015452;28;20956;-59
2023/05/29 02:32:44;;;;;;;10.63;9.93;;;;;;;;;;5010681;28;20040;-60
2023/05/29 02:35:09;;;;;;;10.68;9.98;;;;;;;;;;5013575;28;20120;-60
2023/05/29 02:37:35;;;;;;;10.93;10.23;;;;;;;;;;5012263;28;20037;-60
2023/05/29 02:40:00;;;;;;;10.18;9.57;;;;;;;;;;5015599;28;20898;-60
2023/05/29 02:42:26;;;;;;;10.93;10.23;;;;;;;;;;5012746;28;20111;-60
2023/05/29 02:44:51;;;;;;;9.82;9.23;;;;;;;;;;5014452;28;20030;-59
2023/05/29 02:47:16;;;;;;;10.82;10.13;;;;;;;;;;5012397;28;20049;-59
2023/05/29 02:49:42;;;;;;;10.05;9.45;;;;;;;;;;5013535;28;20049;-60
2023/05/29 02:52:07;;;;;;;10.30;9.65;;;;;;;;;;5015728;28;20045;-59
2023/05/29 02:54:32;;;;;;;10.52;9.82;;;;;;;;;;5014211;28;20038;-60
2023/05/29 02:56:58;;;;;;;10.60;9.90;;;;;;;;;;5015304;28;20208;-60
2023/05/29 02:59:23;;;;;;;11.00;10.30;;;;;;;;;;5015320;28;20080;-60
2023/05/29 03:01:48;;;;;;;11.00;10.30;;;;;;;;;;5012485;28;20648;-60
2023/05/29 03:04:14;;;;;;;10.82;10.13;;;;;;;;;;5014865;28;20416;-60
2023/05/29 03:06:40;;;;;;;10.43;9.80;;;;;;;;;;5015274;28;20034;-59
2023/05/29 03:09:06;;;;;;;11.45;10.75;;;;;;;;;;5015524;28;20037;-60
2023/05/29 03:11:32;;;;;;;11.93;11.15;;;;;;;;;;5014334;28;20033;-59
2023/05/29 03:13:58;;;;;;;10.88;10.18;;;;;;;;;;5013205;28;20022;-60
2023/05/29 03:16:25;;;;;;;12.82;12.02;;;;;;;;;;5011514;28;20375;-60
2023/05/29 03:18:50;;;;;;;11.30;10.60;;;;;;;;;;5017972;28;20455;-59
2023/05/29 03:21:15;;;;;;;10.98;10.18;;;;;;;;;;5015681;28;20060;-59
2023/05/29 03:23:41;;;;;;;11.43;10.73;;;;;;;;;;5013406;28;20192;-59
2023/05/29 03:26:06;;;;;;;12.00;11.30;;;;;;;;;;5017651;28;20072;-59
2023/05/29 03:28:31;;;;;;;12.45;11.65;;;;;;;;;;5018807;28;20116;-60
2023/05/29 03:30:57;;;;;;;12.32;11.18;;;;;;;;;;5015825;28;20747;-59
2023/05/29 03:33:23;;;;;;;13.20;12.25;;;;;;;;;;5017155;28;20037;-59
2023/05/29 03:35:48;;;;;;;13.25;12.45;;;;;;;;;;5017140;28;20029;-59
2023/05/29 03:38:14;;;;;;;12.90;12.10;;;;;;;;;;5016765;28;20396;-60
2023/05/29 03:40:39;;;;;;;11.82;11.13;;;;;;;;;;5014444;28;20033;-60
2023/05/29 03:43:04;;;;;;;12.38;11.68;;;;;;;;;;5019813;28;20049;-60
2023/05/29 03:45:30;;;;;;;11.60;10.90;;;;;;;;;;5018100;28;20121;-60
2023/05/29 03:47:55;;;;;;;12.05;11.35;;;;;;;;;;5017487;28;20034;-60
2023/05/29 03:50:21;;;;;;;11.98;11.18;;;;;;;;;;5014592;28;20153;-60
2023/05/29 03:52:46;;;;;;;11.32;10.63;;;;;;;;;;5015683;28;20041;-60
2023/05/29 03:55:12;;;;;;;11.32;10.63;;;;;;;;;;5017174;28;20041;-59
2023/05/29 03:57:41;;;;;;;11.77;11.05;;;;;;;;;;5013144;28;20049;-59
2023/05/29 04:00:11;;;;;;;10.95;10.25;;;;;;;;;;5015936;28;20037;-60
2023/05/29 04:02:40;;;;;;;11.60;10.90;;;;;;;;;;5017424;28;20042;-60
2023/05/29 04:05:06;;;;;;;12.10;11.40;;;;;;;;;;5018016;28;20029;-60
2023/05/29 04:07:32;;;;;;;11.63;10.73;;;;;;;;;;5000421;28;20742;-60
2023/05/29 04:09:58;;;;;;;10.88;10.18;;;;;;;;;;5015034;28;20037;-60
2023/05/29 04:12:23;;;;;;;12.02;11.23;;;;;;;;;;5015607;28;20422;-60
2023/05/29 04:14:49;;;;;;;10.18;9.57;;;;;;;;;;5017036;28;20127;-59
2023/05/29 04:17:14;;;;;;;10.85;10.15;;;;;;;;;;5016273;28;20061;-60
2023/05/29 04:19:40;;;;;;;10.60;9.95;;;;;;;;;;5015666;28;20072;-60
2023/05/29 04:22:05;;;;;;;10.70;10.00;;;;;;;;;;5016772;28;20065;-60
2023/05/29 04:24:31;;;;;;;11.48;10.68;;;;;;;;;;5014328;28;20045;-59
2023/05/29 04:27:00;;;;;;;11.68;10.77;;;;;;;;;;5014611;28;20037;-59
2023/05/29 04:29:26;;;;;;;11.32;10.63;;;;;;;;;;5013855;28;20525;-60
2023/05/29 04:31:52;;;;;;;10.20;9.60;;;;;;;;;;5015256;28;20358;-60
2023/05/29 04:34:17;;;;;;;11.43;10.52;;;;;;;;;;5017344;28;20029;-60
2023/05/29 04:36:43;;;;;;;11.68;10.73;;;;;;;;;;5016299;28;20092;-60
2023/05/29 04:39:09;;;;;;;11.13;10.43;;;;;;;;;;5013762;28;20134;-60
2023/05/29 04:41:35;;;;;;;11.85;11.15;;;;;;;;;;5009221;28;20480;-61
2023/05/29 04:44:01;;;;;;;11.98;11.18;;;;;;;;;;5017783;28;20030;-60
2023/05/29 04:46:26;;;;;;;12.20;11.38;;;;;;;;;;5015907;28;20040;-61
2023/05/29 04:48:55;;;;;;;11.50;10.80;;;;;;;;;;5012693;28;20376;-61
2023/05/29 04:51:21;;;;;;;11.45;10.75;;;;;;;;;;5018011;28;20139;-61
2023/05/29 04:53:48;;;;;;;11.63;10.93;;;;;;;;;;5014847;28;20035;-62
2023/05/29 04:56:14;;;;;;;10.80;10.10;;;;;;;;;;5014813;28;20038;-61
2023/05/29 04:58:41;;;;;;;12.90;12.05;;;;;;;;;;5015227;28;20710;-62
2023/05/29 05:01:07;;;;;;;11.00;10.30;;;;;;;;;;5016658;28;20087;-60
2023/05/29 05:03:34;;;;;;;10.70;10.00;;;;;;;;;;5013532;28;20057;-60
2023/05/29 05:06:04;;;;;;;10.80;10.10;;;;;;;;;;5015210;28;20048;-60
2023/05/29 05:08:30;;;;;;;11.80;11.00;;;;;;;;;;5016523;28;20041;-60
2023/05/29 05:10:55;;;;;;;10.60;9.95;;;;;;;;;;5023221;28;20088;-60
2023/05/29 05:13:21;;;;;;;11.10;10.40;;;;;;;;;;5014765;28;20026;-60
2023/05/29 05:15:46;;;;;;;12.07;11.38;;;;;;;;;;5023310;28;20040;-60
2023/05/29 05:18:12;;;;;;;10.90;10.20;;;;;;;;;;5014096;28;20038;-59
2023/05/29 05:20:37;;;;;;;11.30;10.60;;;;;;;;;;5015005;28;20140;-60
2023/05/29 05:23:02;;;;;;;11.15;10.45;;;;;;;;;;5015084;28;20325;-59
2023/05/29 05:25:28;;;;;;;11.65;10.95;;;;;;;;;;5013841;28;20577;-59
2023/05/29 05:27:53;;;;;;;12.93;12.02;;;;;;;;;;5013670;28;20029;-59
2023/05/29 05:30:18;;;;;;;12.35;11.55;;;;;;;;;;5015396;28;20116;-60
2023/05/29 05:32:44;;;;;;;11.40;10.70;;;;;;;;;;5013819;28;20053;-61
2023/05/29 05:35:11;;;;;;;12.98;12.18;;;;;;;;;;5014580;28;20037;-64
2023/05/29 05:37:37;;;;;;;11.75;11.05;;;;;;;;;;5007918;28;20061;-65
2023/05/29 05:40:03;;;;;;;16.27;11.98;;;;;;;;;;5014108;28;20095;-63
2023/05/29 05:42:29;;;;;;;13.02;12.23;;;;;;;;;;5012705;28;20049;-62
2023/05/29 05:44:54;;;;;;;14.07;13.18;;;;;;;;;;5015618;28;20041;-63
2023/05/29 05:47:20;;;;;;;14.68;13.60;;;;;;;;;;5018812;28;20488;-64
2023/05/29 05:49:45;;;;;;;13.68;12.77;;;;;;;;;;5013632;28;20021;-62
2023/05/29 05:52:10;;;;;;;14.90;14.05;;;;;;;;;;5013164;28;20340;-65
2023/05/29 05:54:36;;;;;;;14.70;13.80;;;;;;;;;;5015911;28;20499;-62
2023/05/29 05:57:02;;;;;;;17.88;16.85;;;;;;;;;;5015889;28;20037;-60
2023/05/29 05:59:28;;;;;;;15.65;14.75;;;;;;;;;;5016266;28;20439;-60
2023/05/29 06:01:53;;;;;;;17.67;16.67;;;;;;;;;;5021764;28;20072;-60
2023/05/29 06:04:18;;;;;;;16.40;15.45;;;;;;;;;;5014822;28;20160;-60
2023/05/29 06:06:44;;;;;;;18.15;17.10;;;;;;;;;;5015600;28;20033;-59
2023/05/29 06:09:10;;;;;;;17.60;16.60;;;;;;;;;;5014779;28;20112;-59
2023/05/29 06:11:37;;;;;;;19.90;18.80;;;;;;;;;;5015106;28;20478;-60
2023/05/29 06:14:03;;;;;;;21.13;19.90;;;;;;;;;;5013201;28;20635;-59
2023/05/29 06:16:28;;;;;;;22.33;20.92;;;;;;;;;;5012288;28;20124;-60
2023/05/29 06:18:54;;;;;;;22.75;21.50;;;;;;;;;;5009650;28;20041;-59
2023/05/29 06:21:20;;;;;;;25.90;24.50;;;;;;;;;;5014496;28;20048;-60
2023/05/29 06:23:45;;;;;;;25.58;24.20;;;;;;;;;;5015937;28;20151;-59
2023/05/29 06:26:12;;;;;;;25.23;23.85;;;;;;;;;;5013445;28;20500;-60
2023/05/29 06:28:37;;;;;;;26.80;25.38;;;;;;;;;;5012143;28;20033;-59
2023/05/29 06:31:02;;;;;;;28.35;26.85;;;;;;;;;;5013581;28;20494;-60
2023/05/29 06:33:29;;;;;;;28.23;26.70;;;;;;;;;;5015291;28;20068;-62
2023/05/29 06:35:55;;;;;;;27.10;25.65;;;;;;;;;;5011912;28;20040;-63
2023/05/29 06:38:20;;;;;;;28.27;26.75;;;;;;;;;;5013201;28;20029;-59
2023/05/29 06:40:46;;;;;;;28.75;27.15;;;;;;;;;;5015396;28;20045;-59
2023/05/29 06:43:11;;;;;;;24.92;23.58;;;;;;;;;;5013136;28;20025;-65
2023/05/29 06:45:37;;;;;;;29.00;27.50;;;;;;;;;;5012835;28;20189;-62
2023/05/29 06:48:03;;;;;;;23.73;22.40;;;;;;;;;;5013870;28;20029;-59
2023/05/29 06:50:28;;;;;;;25.70;24.30;;;;;;;;;;5011268;28;20519;-59
2023/05/29 06:52:53;;;;;;;22.70;21.42;;;;;;;;;;5017751;28;20406;-59
2023/05/29 06:55:19;;;;;;;24.95;23.45;;;;;;;;;;5017126;28;20130;-60
2023/05/29 06:57:45;;;;;;;25.20;23.80;;;;;;;;;;5016777;28;20037;-63
2023/05/29 07:00:11;;;;;;;26.35;24.92;;;;;;;;;;5016044;28;20403;-67
2023/05/29 07:02:37;;;;;;;26.55;25.10;;;;;;;;;;5017253;28;20029;-63
2023/05/29 07:05:03;;;;;;;28.23;26.73;;;;;;;;;;5019650;28;20045;-61
2023/05/29 07:07:28;;;;;;;27.70;26.20;;;;;;;;;;5017060;28;20029;-60
2023/05/29 07:09:54;;;;;;;26.83;25.40;;;;;;;;;;5018703;28;20076;-60
2023/05/29 07:12:19;;;;;;;29.75;28.20;;;;;;;;;;5016963;28;20337;-58
2023/05/29 07:14:47;;;;;;;29.25;27.65;;;;;;;;;;5017496;28;20040;-59
2023/05/29 07:17:13;;;;;;;28.45;26.85;;;;;;;;;;5018342;28;20045;-64
2023/05/29 07:19:39;;;;;;;30.02;28.33;;;;;;;;;;5016093;28;20037;-63
2023/05/29 07:22:04;;;;;;;33.13;31.38;;;;;;;;;;5015820;28;20044;-64
2023/05/29 07:24:30;;;;;;;28.73;27.17;;;;;;;;;;5019726;28;20045;-64
2023/05/29 07:26:55;;;;;;;28.77;27.27;;;;;;;;;;5014052;28;20044;-60
2023/05/29 07:29:23;;;;;;;29.98;28.38;;;;;;;;;;5016953;28;20125;-60
2023/05/29 07:31:49;;;;;;;31.98;30.08;;;;;;;;;;5018062;28;20052;-60
2023/05/29 07:34:14;;;;;;;27.65;26.15;;;;;;;;;;5017955;28;20117;-63
2023/05/29 07:37:05;;;;;;;31.50;29.90;;;;;;;;;;5018795;28;20128;-63
2023/05/29 07:39:31;;;;;;;23.40;22.10;;;;;;;;;;5014226;28;20048;-60
2023/05/29 07:41:57;;;;;;;19.55;18.45;;;;;;;;;;5015929;28;20044;-59
2023/05/29 07:44:22;;;;;;;20.38;18.88;;;;;;;;;;5018743;28;20448;-60
2023/05/29 07:46:48;;;;;;;21.17;19.60;;;;;;;;;;5016066;28;20420;-63
2023/05/29 07:49:14;;;;;;;20.23;18.63;;;;;;;;;;5014910;28;20041;-60
2023/05/29 07:51:39;;;;;;;25.98;24.60;;;;;;;;;;5015030;28;20747;-62
2023/05/29 07:54:05;;;;;;;21.20;20.08;;;;;;;;;;5017411;28;20040;-65
2023/05/29 07:56:30;;;;;;;21.00;19.80;;;;;;;;;;5017150;28;20025;-62
2023/05/29 07:58:56;;;;;;;18.85;17.80;;;;;;;;;;5018850;28;20144;-63
2023/05/29 08:01:23;;;;;;;26.65;25.17;;;;;;;;;;5014672;28;20528;-64
2023/05/29 08:03:48;;;;;;;25.75;24.15;;;;;;;;;;5016341;28;20053;-60
2023/05/29 08:06:14;;;;;;;22.65;21.17;;;;;;;;;;5017885;28;20451;-60
2023/05/29 08:08:39;;;;;;;31.38;29.70;;;;;;;;;;5016888;28;20041;-60
2023/05/29 08:11:06;;;;;;;29.20;27.60;;;;;;;;;;5015363;28;20037;-63
2023/05/29 08:13:31;;;;;;;33.30;31.58;;;;;;;;;;5014640;28;20032;-65
2023/05/29 08:15:57;;;;;;;26.65;25.25;;;;;;;;;;5015997;28;20038;-65
2023/05/29 08:18:26;;;;;;;19.83;18.73;;;;;;;;;;5018558;28;20070;-64
2023/05/29 08:20:55;;;;;;;19.98;18.65;;;;;;;;;;5014750;28;20065;-67
2023/05/29 08:23:21;;;;;;;24.60;23.17;;;;;;;;;;5018160;28;20582;-65
2023/05/29 08:25:47;;;;;;;27.52;26.08;;;;;;;;;;5015392;28;20057;-65
2023/05/29 08:28:12;;;;;;;23.65;22.38;;;;;;;;;;5016734;28;20043;-64
2023/05/29 08:30:38;;;;;;;26.73;25.27;;;;;;;;;;5017977;28;20722;-68
2023/05/29 08:33:03;;;;;;;26.55;25.10;;;;;;;;;;5013543;28;20424;-65
2023/05/29 08:35:29;;;;;;;31.73;30.08;;;;;;;;;;5016109;28;20411;-59
2023/05/29 08:37:54;;;;;;;26.65;25.25;;;;;;;;;;5012586;28;20029;-63
2023/05/29 08:40:20;;;;;;;23.58;22.25;;;;;;;;;;5016540;28;20422;-64
2023/05/29 08:42:51;;;;;;;30.85;29.23;;;;;;;;;;5016735;28;20064;-60
2023/05/29 08:45:18;;;;;;;19.48;18.38;;;;;;;;;;5014427;28;20034;-65
2023/05/29 08:47:44;;;;;;;19.60;18.50;;;;;;;;;;5016859;28;20044;-65
2023/05/29 08:50:10;;;;;;;15.52;14.63;;;;;;;;;;5015193;28;20065;-59
2023/05/29 08:52:36;;;;;;;14.77;13.88;;;;;;;;;;5015801;28;20119;-65
2023/05/29 08:55:02;;;;;;;18.83;17.83;;;;;;;;;;5015843;28;20779;-66
2023/05/29 08:57:29;;;;;;;34.70;32.90;;;;;;;;;;5015599;28;20101;-59
2023/05/29 08:59:55;;;;;;;15.32;14.38;;;;;;;;;;5016105;28;20060;-66
2023/05/29 09:02:21;;;;;;;18.80;17.67;;;;;;;;;;5016046;28;20057;-59
2023/05/29 09:04:49;;;;;;;20.13;19.02;;;;;;;;;;5016088;28;20048;-65
2023/05/29 09:07:17;;;;;;;26.33;24.92;;;;;;;;;;5035622;28;20048;-59
2023/05/29 09:09:42;;;;;;;36.75;34.85;;;;;;;;;;5033974;28;20029;-64
2023/05/29 09:12:09;;;;;;;60.35;57.13;;;;;;;;;;5033959;28;20489;-64
2023/05/29 09:14:40;;;;;;;16.10;15.20;;;;;;;;;;5032912;28;20123;-60
2023/05/29 09:17:06;;;;;;;19.20;18.13;;;;;;;;;;5036601;28;20025;-60
2023/05/29 09:19:36;;;;;;;98.15;93.18;;;;;;;;;;5034989;28;20040;-58
2023/05/29 09:22:07;;;;;;;100.47;95.50;;;;;;;;;;5034315;28;20142;-58
2023/05/29 09:24:33;;;;;;;117.45;111.68;;;;;;;;;;5035332;28;20296;-59
2023/05/29 09:27:00;;;;;;;90.13;85.68;;;;;;;;;;5034547;28;20029;-59
2023/05/29 09:29:27;;;;;;;126.53;120.20;;;;;;;;;;5036604;28;20087;-59
2023/05/29 09:31:52;;;;;;;119.88;114.00;;;;;;;;;;5035778;28;20041;-59
2023/05/29 09:34:17;;;;;;;111.82;106.28;;;;;;;;;;5036896;28;20041;-59
2023/05/29 09:36:43;;;;;;;94.82;87.90;;;;;;;;;;5033730;28;20076;-63
2023/05/29 09:39:09;;;;;;;124.22;118.13;;;;;;;;;;5033889;28;20037;-59
2023/05/29 09:41:42;;;;;;;131.93;125.43;;;;;;;;;;5032661;28;20037;-59
2023/05/29 09:44:10;;;;;;;112.90;107.38;;;;;;;;;;5032512;28;20029;-58
2023/05/29 09:46:36;;;;;;;129.07;122.68;;;;;;;;;;5032939;28;20455;-59
2023/05/29 09:49:03;;;;;;;92.82;88.13;;;;;;;;;;5028467;28;20044;-59
2023/05/29 09:51:28;;;;;;;127.15;120.72;;;;;;;;;;5033967;28;20227;-59
2023/05/29 09:53:56;;;;;;;108.25;102.90;;;;;;;;;;5035400;28;20041;-59
2023/05/29 09:56:24;;;;;;;97.60;92.75;;;;;;;;;;5035207;28;20033;-64
2023/05/29 09:58:51;;;;;;;123.55;117.43;;;;;;;;;;5031310;28;20044;-62
2023/05/29 10:01:17;;;;;;;72.03;68.32;;;;;;;;;;5034080;28;20045;-62
2023/05/29 10:03:42;;;;;;;73.97;70.30;;;;;;;;;;5033575;28;20051;-62
2023/05/29 10:06:11;;;;;;;80.72;76.65;;;;;;;;;;5035605;28;20029;-64
2023/05/29 10:08:39;;;;;;;83.32;79.10;;;;;;;;;;5033262;28;20049;-63
2023/05/29 10:11:09;;;;;;;71.63;67.82;;;;;;;;;;5032597;28;21403;-64
2023/05/29 10:13:39;;;;;;;69.70;66.22;;;;;;;;;;5035505;28;20033;-64
2023/05/29 10:16:08;;;;;;;90.50;86.05;;;;;;;;;;5034904;28;20126;-62
2023/05/29 10:18:43;;;;;;;94.68;90.03;;;;;;;;;;5034809;28;20059;-58
2023/05/29 10:21:11;;;;;;;77.25;73.40;;;;;;;;;;5037615;28;20144;-59
2023/05/29 10:23:38;;;;;;;73.15;69.50;;;;;;;;;;5033968;28;20056;-59
2023/05/29 10:26:12;;;;;;;57.90;54.97;;;;;;;;;;5033899;28;20044;-58
2023/05/29 10:28:41;;;;;;;71.45;67.88;;;;;;;;;;5033698;28;20174;-64
2023/05/29 10:31:10;;;;;;;71.28;67.70;;;;;;;;;;5033100;28;20040;-64
2023/05/29 10:33:42;;;;;;;73.13;69.53;;;;;;;;;;5033155;28;20033;-59
2023/05/29 10:36:11;;;;;;;35.78;33.80;;;;;;;;;;5034715;28;20037;-59
2023/05/29 10:38:37;;;;;;;62.72;59.55;;;;;;;;;;5032879;28;20463;-59
2023/05/29 10:41:27;;;;;;;74.03;70.30;;;;;;;;;;5032308;28;20037;-59
2023/05/29 10:44:03;;;;;;;;;;;;;;;;;;5031212;28;20041;-59
2023/05/29 10:47:00;;;;;;;26.23;24.83;;;;;;;;;;5034262;28;19920;-59
2023/05/29 10:49:26;;;;;;;32.83;31.10;;;;;;;;;;5026538;28;20042;-58
2023/05/29 10:51:52;;;;;;;54.35;51.55;;;;;;;;;;5032739;28;20521;-59
2023/05/29 10:54:25;;;;;;;37.88;35.90;;;;;;;;;;5034516;28;20052;-60
2023/05/29 10:56:58;;;;;;;35.55;33.67;;;;;;;;;;5036814;28;20421;-65
2023/05/29 10:59:27;;;;;;;33.58;31.77;;;;;;;;;;5032822;28;20029;-66
2023/05/29 11:01:53;;;;;;;43.40;41.17;;;;;;;;;;5032529;28;20044;-58
2023/05/29 11:04:22;;;;;;;43.05;40.88;;;;;;;;;;5035444;28;20218;-59
2023/05/29 11:06:48;;;;;;;32.83;31.13;;;;;;;;;;5033347;28;20033;-58
2023/05/29 11:09:31;;;;;;;34.15;32.35;;;;;;;;;;5034563;28;20071;-58
2023/05/29 11:12:35;;;;;;;64.35;61.05;;;;;;;;;;5034891;28;20037;-59
2023/05/29 11:15:10;;;;;;;57.20;54.30;;;;;;;;;;5032560;28;20060;-58
2023/05/29 11:17:39;;;;;;;36.08;34.22;;;;;;;;;;5034454;28;20029;-59
2023/05/29 11:20:06;;;;;;;41.78;39.08;;;;;;;;;;5036702;28;20037;-59
2023/05/29 11:22:58;;;;;;;70.13;66.60;;;;;;;;;;5034197;28;20116;-58
2023/05/29 11:25:24;;;;;;;59.55;56.53;;;;;;;;;;5032978;28;20049;-58
2023/05/29 11:27:51;;;;;;;71.68;67.97;;;;;;;;;;5037829;28;20040;-58
2023/05/29 11:30:18;;;;;;;55.88;53.08;;;;;;;;;;5032452;28;20037;-58
2023/05/29 11:32:45;;;;;;;78.95;75.00;;;;;;;;;;5033983;28;20076;-58
2023/05/29 11:35:12;;;;;;;48.17;45.72;;;;;;;;;;5034357;28;20106;-58
2023/05/29 11:37:39;;;;;;;55.92;53.13;;;;;;;;;;5033911;28;20039;-58
2023/05/29 11:40:08;;;;;;;67.13;63.72;;;;;;;;;;5033813;28;20041;-59
2023/05/29 11:42:33;;;;;;;59.58;56.60;;;;;;;;;;5034429;28;20037;-58
2023/05/29 11:45:21;;;;;;;45.20;42.90;;;;;;;;;;5036400;28;20071;-58
2023/05/29 11:47:54;;;;;;;49.53;47.00;;;;;;;;;;5034751;28;20073;-58
2023/05/29 11:50:31;;;;;;;55.42;52.65;;;;;;;;;;5036374;28;20044;-59
2023/05/29 11:52:58;;;;;;;59.05;56.05;;;;;;;;;;5037941;28;20037;-58
2023/05/29 11:55:24;;;;;;;67.43;64.05;;;;;;;;;;5038521;28;20107;-58
2023/05/29 11:57:50;;;;;;;54.00;50.88;;;;;;;;;;5034474;28;20048;-59
2023/05/29 12:00:18;;;;;;;46.42;44.00;;;;;;;;;;5036011;28;20612;-58
2023/05/29 12:02:46;;;;;;;42.53;40.33;;;;;;;;;;5034813;28;20098;-59
2023/05/29 12:05:14;;;;;;;51.20;48.60;;;;;;;;;;5036234;28;20029;-59
2023/05/29 12:07:52;;;;;;;47.60;45.20;;;;;;;;;;5034539;28;20355;-58
2023/05/29 12:10:20;;;;;;;44.50;42.20;;;;;;;;;;5034934;28;20475;-58
2023/05/29 12:12:54;;;;;;;40.88;38.78;;;;;;;;;;5033327;28;20095;-58
2023/05/29 12:15:21;;;;;;;53.17;50.42;;;;;;;;;;5034617;28;20037;-58
2023/05/29 12:17:47;;;;;;;57.25;54.35;;;;;;;;;;5034681;28;20117;-59
2023/05/29 12:20:14;;;;;;;42.40;40.20;;;;;;;;;;5034825;28;20047;-59
2023/05/29 12:22:41;;;;;;;49.35;46.83;;;;;;;;;;5033850;28;20537;-58
2023/05/29 12:25:09;;;;;;;75.18;71.30;;;;;;;;;;5032429;28;20033;-58
2023/05/29 12:27:41;;;;;;;62.50;59.35;;;;;;;;;;5034183;28;20032;-59
2023/05/29 12:30:08;;;;;;;82.45;78.30;;;;;;;;;;5034383;28;20111;-58
2023/05/29 12:32:41;;;;;;;81.43;77.40;;;;;;;;;;5034359;28;20029;-60
2023/05/29 12:35:21;;;;;;;74.75;71.00;;;;;;;;;;5035608;28;20040;-58
2023/05/29 12:37:55;;;;;;;74.85;71.10;;;;;;;;;;5033758;28;20037;-57
2023/05/29 12:40:25;;;;;;;67.20;63.78;;;;;;;;;;5033848;28;20067;-58
2023/05/29 12:42:56;;;;;;;77.32;73.53;;;;;;;;;;5033620;28;20370;-66
2023/05/29 12:45:30;;;;;;;78.32;74.35;;;;;;;;;;5033818;28;20037;-58
2023/05/29 12:47:57;;;;;;;86.18;81.78;;;;;;;;;;5030883;28;20036;-66
2023/05/29 12:50:24;;;;;;;78.53;74.25;;;;;;;;;;5034909;28;20076;-58
2023/05/29 12:53:10;;;;;;;79.47;75.53;;;;;;;;;;5035285;28;20130;-60
2023/05/29 12:55:38;;;;;;;66.80;63.50;;;;;;;;;;5035500;28;20045;-64
2023/05/29 12:58:11;;;;;;;72.72;69.13;;;;;;;;;;5032535;28;20044;-57
2023/05/29 13:00:41;;;;;;;65.80;62.50;;;;;;;;;;5037320;28;20116;-58
2023/05/29 13:03:07;;;;;;;;;;;;;;;;;;5033578;28;20043;-57
2023/05/29 13:05:32;;;;;;;67.70;64.30;;;;;;;;;;5034326;28;19917;-58
2023/05/29 13:07:58;;;;;;;68.82;65.43;;;;;;;;;;5026324;28;20140;-58
2023/05/29 13:10:25;;;;;;;68.75;65.28;;;;;;;;;;5028404;28;20037;-58
2023/05/29 13:12:54;;;;;;;72.15;68.55;;;;;;;;;;5034524;28;20044;-58
2023/05/29 13:15:21;;;;;;;70.88;67.38;;;;;;;;;;5033967;28;20069;-58
2023/05/29 13:17:46;;;;;;;65.63;62.22;;;;;;;;;;5035126;28;20036;-58
2023/05/29 13:20:12;;;;;;;69.10;65.65;;;;;;;;;;5036411;28;20041;-58
2023/05/29 13:22:39;;;;;;;69.63;66.13;;;;;;;;;;5036188;28;20037;-65
2023/05/29 13:25:06;;;;;;;64.65;61.35;;;;;;;;;;5033412;28;20047;-64
2023/05/29 13:27:33;;;;;;;64.78;61.50;;;;;;;;;;5033783;28;20037;-65
2023/05/29 13:29:58;;;;;;;64.97;61.67;;;;;;;;;;5033828;28;20673;-65
2023/05/29 13:32:24;;;;;;;69.60;66.13;;;;;;;;;;5034359;28;20041;-65
2023/05/29 13:34:49;;;;;;;61.55;58.45;;;;;;;;;;5033024;28;20352;-65
2023/05/29 13:37:15;;;;;;;64.10;60.88;;;;;;;;;;5034800;28;20040;-57
2023/05/29 13:39:40;;;;;;;58.40;55.47;;;;;;;;;;5035126;28;20038;-57
2023/05/29 13:42:07;;;;;;;59.13;56.15;;;;;;;;;;5034638;28;20044;-57
2023/05/29 13:44:33;;;;;;;60.53;57.30;;;;;;;;;;5038021;28;20041;-64
2023/05/29 13:46:58;;;;;;;62.17;58.95;;;;;;;;;;5035795;28;20037;-65
2023/05/29 13:49:25;;;;;;;60.95;57.85;;;;;;;;;;5021013;28;20041;-64
2023/05/29 13:51:50;;;;;;;58.72;55.72;;;;;;;;;;5035044;28;20651;-64
2023/05/29 13:54:17;;;;;;;57.30;54.40;;;;;;;;;;5035129;28;20124;-56
2023/05/29 13:56:42;;;;;;;57.17;54.28;;;;;;;;;;5042160;28;20033;-57
2023/05/29 13:59:08;;;;;;;61.00;57.92;;;;;;;;;;5033246;28;20349;-56
2023/05/29 14:01:33;;;;;;;57.28;54.28;;;;;;;;;;5034438;28;20090;-57
2023/05/29 14:03:59;;;;;;;57.15;54.20;;;;;;;;;;5030456;28;20041;-56
2023/05/29 14:06:25;;;;;;;58.67;55.72;;;;;;;;;;5031128;28;20098;-57
2023/05/29 14:08:51;;;;;;;62.25;59.15;;;;;;;;;;5034347;28;20029;-56
2023/05/29 14:11:16;;;;;;;56.05;53.25;;;;;;;;;;5032696;28;20040;-54
2023/05/29 14:13:42;;;;;;;60.70;57.63;;;;;;;;;;5034165;28;20033;-56
2023/05/29 14:16:07;;;;;;;57.42;54.53;;;;;;;;;;5033668;28;20112;-57
2023/05/29 14:18:32;;;;;;;58.25;55.33;;;;;;;;;;5033218;28;20128;-55